CheckWX is a tool to help pilots better visualize weather data.  It is not intended as a substitute for an official pre-flight weather briefing.

13:18:07 UTC

KALB TAF
Albany International Airport
Albany, New York, USA
KALB 211139Z 2112/2212 00000KT P6SM FEW150

Sep-21@
12:00 UTC

Sep-21 @ 12:00 UTC

Sep-22@
12:00 UTC

Sep-22 @ 12:00 UTC

KALB 211139Z 2112/2212 00000KT P6SM FEW150
Cloud Levels
  • Few at 15,000' AGL